Briefing drone pour Romorantin-lanthenay (LFYR)

Rechercher une autre localisation

Conditions de vol :


Nous sommes le : Lundi 06 décembre 2021
Il est 17:49 UTC (18:49 LT)

Lever de soleil : 06:59 UTC (07:59 LT)
Coucher de soleil : 16:28 UTC (17:28 LT)

Météo

L'essentiel des conditions de vol

VIGILANCE MÉTÉO FRANCE - Loir-et-Cher (41)
Pas de vigilances particulieres
METAR de LFYR
LFYR 061730Z AUTO 19006KT 170V230 6000 -RADZ SCT007/// BKN011/// BKN018/// ///CB 06/06 Q1012

Date d'émission: 06/12/2021
Heure d'émission: 17:30 UTC
Vent: 190° (variable du 170° au 230°) pour 6 KT (11 km/h)
Visibilité horizontale: 6000 m
Plafond :
- Nuages épars à 700ft (213m)
- Nuages morcelés à 1100ft (335m)
- Nuages morcelés à 1800ft (549m)
Température: 6 °C
Point de rosée: 6 °C
Humidité: 100%
Pression (QNH): 1012 hPa
TAF de LFYR
AMD LFYR 061602Z 0616/0715 CNL

Conditions prévues :

Heure d'émission : Bulletin éffectué le 06 à 16:00 UTC
Prévision : Valide du 06 a 16:00 UTC au 07 a 15:00 UTC
Nuages : à 0ft (0 m)
WEBCAM POUR ROMORANTIN-LANTHENAY

Réglementation

Voler en sécurité

CARTES AERONAUTIQUE 1/500.000
CARTES VAC (LFYR)
SUP AIP




Chargement des AIP...
NOTAM (ROMORANTIN-LANTHENAY + Terrain à proximité / FIR )




Chargement des NOTAMS...
CONTACT PREFECTURE 41
Loir-et-Cher (41) : pref-bpas@loir-et-cher.gouv.fr


Avertissement : Les données mises à disposition sont indicatives. Oxygène Drone ne pourra être tenu responsable de dégâts causés aux biens et aux personnes.